Time;durP1;ratioP1;P1;durP2;ratioP2;P2;SDS_P1;SDS_P2;PMS_P1;PMS_P2;Temp;Humidity;BMP_temperature;BMP_pressure;BME280_temperature;BME280_humidity;BME280_pressure;Samples;Min_cycle;Max_cycle;Signal;HPM_P1;HPM_P2
2022/04/19 00:00:24;;;;;;;4.50;3.00;;;;;;;8.44;64.60;101202.50;5040507;28;20029;-77
2022/04/19 00:02:49;;;;;;;4.32;2.30;;;;;;;8.39;64.75;101200.31;5036862;28;20085;-77
2022/04/19 00:05:15;;;;;;;2.95;1.90;;;;;;;8.33;65.13;101199.06;5037980;28;20087;-77
2022/04/19 00:07:41;;;;;;;4.85;2.22;;;;;;;8.30;65.68;101199.31;5055523;28;20254;-77
2022/04/19 00:10:08;;;;;;;4.22;2.50;;;;;;;8.26;65.74;101199.72;5057676;28;20364;-77
2022/04/19 00:12:34;;;;;;;2.75;2.22;;;;;;;8.15;66.12;101196.28;5056950;28;20048;-77
2022/04/19 00:15:00;;;;;;;3.60;2.33;;;;;;;8.01;66.79;101193.25;5020672;28;20073;-77
2022/04/19 00:17:26;;;;;;;5.40;2.15;;;;;;;7.85;67.06;101194.50;5023776;28;20413;-77
2022/04/19 00:19:51;;;;;;;4.43;2.22;;;;;;;7.73;67.91;101190.38;5057426;28;20043;-77
2022/04/19 00:22:19;;;;;;;5.68;2.85;;;;;;;7.66;68.55;101192.66;5060659;28;20086;-77
2022/04/19 00:24:45;;;;;;;6.03;2.97;;;;;;;7.59;69.20;101192.34;5037047;28;20037;-77
2022/04/19 00:27:10;;;;;;;4.05;2.45;;;;;;;7.58;69.39;101193.28;5038885;28;20044;-77
2022/04/19 00:29:37;;;;;;;5.47;2.80;;;;;;;7.52;69.12;101186.06;5039345;28;20451;-77
2022/04/19 00:32:03;;;;;;;5.13;2.40;;;;;;;7.47;68.67;101190.75;5057788;28;20159;-77
2022/04/19 00:34:29;;;;;;;5.38;3.10;;;;;;;7.47;68.52;101190.75;5027362;28;20487;-76
2022/04/19 00:36:54;;;;;;;5.00;2.90;;;;;;;7.41;68.69;101193.84;5022614;28;20140;-77
2022/04/19 00:39:20;;;;;;;5.05;2.55;;;;;;;7.40;68.20;101198.22;5023320;28;20032;-77
2022/04/19 00:41:45;;;;;;;10.23;2.80;;;;;;;7.40;68.52;101190.47;5037017;28;20032;-77
2022/04/19 00:44:11;;;;;;;4.22;2.65;;;;;;;7.43;68.64;101186.81;5055542;28;20041;-77
2022/04/19 00:46:36;;;;;;;6.05;2.55;;;;;;;7.44;68.74;101190.19;5053771;28;20027;-77
2022/04/19 00:49:02;;;;;;;6.82;3.30;;;;;;;7.41;68.53;101189.50;5056858;28;20175;-77
2022/04/19 00:51:29;;;;;;;7.35;2.83;;;;;;;7.33;68.65;101188.50;5045368;28;20032;-76
2022/04/19 00:53:55;;;;;;;6.60;3.38;;;;;;;7.27;68.92;101183.84;5043986;28;20033;-77
2022/04/19 00:56:21;;;;;;;5.28;2.80;;;;;;;7.18;69.14;101191.38;5040147;28;20021;-77
2022/04/19 00:58:47;;;;;;;5.47;3.17;;;;;;;7.09;69.51;101181.81;5038528;28;20086;-77
2022/04/19 01:01:13;;;;;;;8.82;3.25;;;;;;;7.01;69.47;101185.00;5042541;28;20085;-77
2022/04/19 01:03:39;;;;;;;7.25;3.10;;;;;;;6.96;70.42;101186.31;5055630;28;20493;-76
2022/04/19 01:06:13;;;;;;;5.03;2.72;;;;;;;6.90;71.17;101185.06;5027166;28;20024;-77
2022/04/19 01:08:38;;;;;;;6.85;3.70;;;;;;;6.90;71.01;101190.22;5041053;28;20029;-77
2022/04/19 01:14:03;;;;;;;7.45;3.50;;;;;;;6.90;70.68;101181.66;5047557;28;20077;-77
2022/04/19 01:16:33;;;;;;;7.60;3.53;;;;;;;6.85;71.39;101181.19;5053309;28;20033;-77
2022/04/19 01:19:01;;;;;;;7.63;3.50;;;;;;;6.79;71.44;101178.16;5046166;28;20032;-77
2022/04/19 01:21:49;;;;;;;10.05;3.22;;;;;;;6.79;71.25;101180.75;5039033;28;20028;-77
2022/04/19 01:24:22;;;;;;;6.60;3.67;;;;;;;6.79;71.72;101174.78;5044127;28;20496;-76
2022/04/19 01:26:52;;;;;;;5.78;3.30;;;;;;;6.76;71.61;101173.28;5042435;28;20617;-77
2022/04/19 01:29:18;;;;;;;7.20;3.95;;;;;;;6.75;71.98;101170.81;5045863;28;20060;-77
2022/04/19 01:31:47;;;;;;;9.85;3.97;;;;;;;6.72;71.82;101171.03;5040704;28;20024;-77
2022/04/19 01:34:13;;;;;;;7.80;3.13;;;;;;;6.68;71.94;101180.78;5039802;28;20031;-77
2022/04/19 01:36:40;;;;;;;8.30;3.53;;;;;;;6.67;72.33;101180.88;5044368;28;20032;-77
2022/04/19 01:39:09;;;;;;;7.30;3.85;;;;;;;6.65;72.00;101178.47;5041981;28;20524;-77
2022/04/19 01:41:37;;;;;;;7.32;3.65;;;;;;;6.63;71.78;101180.34;5040659;28;21188;-77
2022/04/19 01:44:06;;;;;;;7.38;3.55;;;;;;;6.62;71.52;101169.19;5055014;28;20025;-77
2022/04/19 01:46:33;;;;;;;8.45;4.22;;;;;;;6.61;72.08;101183.03;5042116;28;20185;-76
2022/04/19 01:48:59;;;;;;;9.80;4.63;;;;;;;6.59;72.04;101169.44;5043192;28;20111;-76
2022/04/19 01:51:25;;;;;;;7.38;3.90;;;;;;;6.56;72.18;101171.44;5044292;28;20203;-77
2022/04/19 01:53:51;;;;;;;9.43;4.35;;;;;;;6.53;71.85;101167.34;5023861;28;20025;-76
2022/04/19 01:56:18;;;;;;;10.60;4.30;;;;;;;6.50;71.38;101165.00;5042258;28;20028;-76
2022/04/19 01:58:53;;;;;;;6.70;4.22;;;;;;;6.49;71.47;101157.41;5060091;28;20570;-76
2022/04/19 02:01:21;;;;;;;9.50;4.40;;;;;;;6.48;71.29;101168.63;5023963;28;20401;-76
2022/04/19 02:03:47;;;;;;;10.35;4.53;;;;;;;6.46;71.57;101165.38;5040464;28;20028;-76
2022/04/19 02:06:17;;;;;;;7.88;4.45;;;;;;;6.42;71.34;101157.88;5041722;28;20028;-77
2022/04/19 02:08:44;;;;;;;7.30;4.63;;;;;;;6.38;71.58;101159.03;5040510;28;20089;-76
2022/04/19 02:11:18;;;;;;;9.43;4.55;;;;;;;6.25;72.20;101158.38;5039956;28;20722;-76
2022/04/19 02:13:53;;;;;;;15.55;4.25;;;;;;;6.13;73.27;101160.13;5042977;28;20887;-76
2022/04/19 02:16:23;;;;;;;7.35;4.38;;;;;;;6.08;73.26;101161.44;5043294;28;20060;-77
2022/04/19 02:18:49;;;;;;;10.52;4.22;;;;;;;6.02;73.51;101160.13;5042146;28;20504;-76
2022/04/19 02:21:14;;;;;;;8.60;4.70;;;;;;;6.02;73.40;101160.94;5041652;28;20028;-77
2022/04/19 02:23:40;;;;;;;13.13;5.22;;;;;;;6.04;72.79;101160.84;5027804;28;20033;-76
2022/04/19 02:26:06;;;;;;;10.05;4.78;;;;;;;6.04;72.63;101158.25;5045866;28;20044;-77
2022/04/19 02:28:34;;;;;;;8.30;4.80;;;;;;;6.05;72.83;101165.06;5040626;28;20477;-77
2022/04/19 02:31:10;;;;;;;6.57;4.38;;;;;;;6.03;72.90;101154.88;5024045;28;20131;-76
2022/04/19 02:33:36;;;;;;;13.25;4.60;;;;;;;6.03;72.62;101161.78;5036855;28;20021;-76
2022/04/19 02:36:03;;;;;;;9.45;4.85;;;;;;;6.02;72.45;101158.38;5043113;28;20040;-76
2022/04/19 02:38:29;;;;;;;8.48;4.95;;;;;;;6.00;72.61;101157.69;5025400;28;20033;-76
2022/04/19 02:40:56;;;;;;;12.30;5.13;;;;;;;5.99;72.47;101155.22;5036779;28;20033;-76
2022/04/19 02:43:22;;;;;;;9.18;5.13;;;;;;;5.96;72.58;101150.31;5038224;28;20031;-76
2022/04/19 02:45:54;;;;;;;11.27;5.05;;;;;;;5.93;72.65;101153.91;5021545;28;20043;-76
2022/04/19 02:48:28;;;;;;;13.43;5.43;;;;;;;5.92;72.64;101154.84;5037154;28;20033;-77
2022/04/19 02:50:55;;;;;;;13.45;5.25;;;;;;;5.89;72.64;101154.25;5036653;28;20036;-77
2022/04/19 02:53:20;;;;;;;11.80;4.90;;;;;;;5.84;73.06;101147.72;5038599;28;20034;-76
2022/04/19 02:55:46;;;;;;;10.38;5.07;;;;;;;5.70;73.33;101145.34;5039402;28;20020;-76
2022/04/19 02:58:11;;;;;;;12.85;5.30;;;;;;;5.60;74.02;101142.66;5053667;28;20157;-76
2022/04/19 03:00:38;;;;;;;9.65;5.07;;;;;;;5.55;74.17;101147.31;5038568;28;20031;-76
2022/04/19 03:03:04;;;;;;;9.63;5.18;;;;;;;5.53;74.34;101148.38;5038706;28;20029;-76
2022/04/19 03:05:33;;;;;;;8.85;5.35;;;;;;;5.51;74.51;101145.09;5035616;28;20417;-76
2022/04/19 03:07:59;;;;;;;13.85;5.15;;;;;;;5.50;74.60;101146.03;5035709;28;20036;-76
2022/04/19 03:10:25;;;;;;;12.18;5.03;;;;;;;5.47;75.06;101141.94;5041645;28;20044;-76
2022/04/19 03:12:51;;;;;;;9.88;5.75;;;;;;;5.41;74.78;101142.41;5039314;28;20059;-76
2022/04/19 03:15:20;;;;;;;10.18;5.88;;;;;;;5.36;75.62;101136.78;5041746;28;20025;-76
2022/04/19 03:17:46;;;;;;;10.07;6.15;;;;;;;5.33;75.28;101134.41;5025105;28;20638;-76
2022/04/19 03:20:15;;;;;;;32.38;6.22;;;;;;;5.31;75.31;101133.72;5040354;28;20040;-76
2022/04/19 03:28:17;;;;;;;11.18;6.22;;;;;;;5.28;75.16;101139.09;5038965;28;20047;-76
2022/04/19 03:30:43;;;;;;;14.05;7.18;;;;;;;5.27;75.27;101133.13;5038547;28;20055;-76
2022/04/19 03:33:09;;;;;;;12.95;6.15;;;;;;;5.19;75.74;101138.03;5023298;28;20036;-77
2022/04/19 03:35:36;;;;;;;12.27;5.70;;;;;;;5.14;75.66;101135.81;5039649;28;20021;-76
2022/04/19 03:38:04;;;;;;;10.60;5.72;;;;;;;5.13;75.67;101141.03;5038071;28;20408;-76
2022/04/19 03:40:30;;;;;;;11.27;5.85;;;;;;;5.11;75.83;101138.59;5038240;28;20451;-76
2022/04/19 03:42:56;;;;;;;13.75;6.03;;;;;;;5.11;75.36;101137.78;5039289;28;20032;-76
2022/04/19 03:45:23;;;;;;;15.40;5.95;;;;;;;5.11;75.68;101146.28;5057614;28;20074;-77
2022/04/19 03:47:49;;;;;;;14.18;6.72;;;;;;;5.10;76.03;101141.25;5036405;28;20036;-76
2022/04/19 03:50:14;;;;;;;13.05;6.80;;;;;;;5.07;76.42;101143.13;5025485;28;20021;-76
2022/04/19 03:52:40;;;;;;;15.75;7.10;;;;;;;5.07;76.40;101140.56;5025891;28;20029;-76
2022/04/19 03:55:06;;;;;;;15.23;7.00;;;;;;;4.97;76.62;101149.88;5037605;28;20036;-76
2022/04/19 03:57:32;;;;;;;15.32;7.38;;;;;;;4.92;77.11;101148.56;5023651;28;20032;-76
2022/04/19 03:59:57;;;;;;;13.00;6.60;;;;;;;4.91;77.31;101157.19;5035958;28;20121;-76
2022/04/19 04:02:29;;;;;;;18.05;7.13;;;;;;;4.90;77.55;101158.09;5040688;28;20535;-76
2022/04/19 04:04:54;;;;;;;13.27;6.78;;;;;;;4.88;77.36;101153.09;5037300;28;20086;-77
2022/04/19 04:07:20;;;;;;;14.15;7.28;;;;;;;4.87;77.67;101156.59;5040167;28;20073;-76
2022/04/19 04:09:46;;;;;;;14.52;7.55;;;;;;;4.85;77.77;101161.84;5021627;28;20070;-76
2022/04/19 04:12:12;;;;;;;16.00;7.50;;;;;;;4.85;78.06;101161.03;5040073;28;20033;-76
2022/04/19 04:14:43;;;;;;;15.02;7.05;;;;;;;4.83;77.69;101160.31;5038094;28;20067;-76
2022/04/19 04:17:10;;;;;;;14.30;6.65;;;;;;;4.79;78.00;101164.84;5017099;28;20041;-77
2022/04/19 04:19:35;;;;;;;16.15;6.90;;;;;;;4.78;78.19;101162.38;5037112;28;20509;-76
2022/04/19 04:22:01;;;;;;;17.52;6.45;;;;;;;4.71;78.05;101164.59;5041070;28;20035;-76
2022/04/19 04:24:28;;;;;;;12.70;6.45;;;;;;;4.61;78.02;101158.44;5040562;28;20020;-76
2022/04/19 04:26:54;;;;;;;14.35;7.32;;;;;;;4.52;78.89;101165.06;5033417;28;20085;-76
2022/04/19 04:29:22;;;;;;;13.93;7.15;;;;;;;4.47;78.96;101157.66;5036937;28;20029;-76
2022/04/19 04:31:50;;;;;;;18.25;7.65;;;;;;;4.49;78.98;101163.50;5019686;28;20086;-76
2022/04/19 04:34:17;;;;;;;13.60;6.85;;;;;;;4.54;78.84;101162.38;5022639;28;20025;-76
2022/04/19 04:36:44;;;;;;;19.13;7.55;;;;;;;4.56;78.52;101165.66;5036711;28;20040;-76
2022/04/19 04:39:14;;;;;;;13.80;7.60;;;;;;;4.57;78.44;101168.13;5023321;28;20036;-76
2022/04/19 04:42:00;;;;;;;13.00;7.47;;;;;;;4.57;79.01;101177.56;5038869;28;20752;-76
2022/04/19 04:44:25;;;;;;;11.95;6.93;;;;;;;4.56;78.70;101176.75;5038159;28;20025;-76
2022/04/19 04:49:41;;;;;;;15.98;7.30;;;;;;;4.55;79.15;101176.88;5034339;28;20032;-76
2022/04/19 04:52:14;;;;;;;16.63;8.13;;;;;;;4.57;79.19;101175.81;5024643;28;20032;-76
2022/04/19 04:54:41;;;;;;;16.25;8.25;;;;;;;4.58;79.32;101181.81;5050836;28;20082;-77
2022/04/19 04:57:08;;;;;;;16.13;7.75;;;;;;;4.61;78.85;101173.84;5037410;28;20407;-76
2022/04/19 04:59:36;;;;;;;17.67;9.18;;;;;;;4.62;78.90;101167.81;5036934;28;20136;-76
2022/04/19 05:02:03;;;;;;;15.93;9.00;;;;;;;4.62;78.94;101166.03;5034841;28;21325;-76
2022/04/19 05:04:29;;;;;;;18.42;8.20;;;;;;;4.63;79.17;101172.00;5041902;28;20024;-75
2022/04/19 05:06:57;;;;;;;14.57;8.30;;;;;;;4.62;79.68;101167.81;5031749;28;20055;-76
2022/04/19 05:09:26;;;;;;;15.77;8.60;;;;;;;4.61;79.78;101174.66;5038202;28;20024;-76
2022/04/19 05:11:52;;;;;;;18.08;9.55;;;;;;;4.62;79.97;101170.38;5034381;28;20492;-76
2022/04/19 05:14:23;;;;;;;16.17;8.77;;;;;;;4.61;80.18;101163.59;5058210;28;20021;-76
2022/04/19 05:16:49;;;;;;;15.13;8.93;;;;;;;4.63;79.89;101170.28;5038601;28;20618;-76
2022/04/19 05:19:16;;;;;;;22.10;8.52;;;;;;;4.63;80.15;101164.28;5023615;28;20040;-77
2022/04/19 05:21:41;;;;;;;21.73;9.38;;;;;;;4.63;80.41;101169.44;5023974;28;20443;-76
2022/04/19 05:24:08;;;;;;;19.00;9.45;;;;;;;4.64;80.87;101168.50;5037410;28;20501;-76
2022/04/19 05:26:35;;;;;;;20.25;9.25;;;;;;;4.66;80.68;101167.47;5032470;28;20360;-76
2022/04/19 05:29:01;;;;;;;18.48;9.30;;;;;;;4.70;80.79;101165.50;5020127;28;20036;-76
2022/04/19 05:31:27;;;;;;;18.17;8.98;;;;;;;4.74;80.69;101166.09;5021641;28;20025;-76
2022/04/19 05:33:53;;;;;;;17.67;9.60;;;;;;;4.79;80.72;101166.63;5053549;28;20074;-77
2022/04/19 05:36:19;;;;;;;19.90;10.60;;;;;;;4.88;81.27;101166.78;5023578;28;20131;-77
2022/04/19 05:38:45;;;;;;;18.75;9.48;;;;;;;4.96;80.79;101173.13;5037735;28;20033;-76
2022/04/19 05:41:11;;;;;;;22.10;10.65;;;;;;;5.09;80.77;101175.63;5058054;28;20060;-76
2022/04/19 05:43:37;;;;;;;16.60;9.82;;;;;;;5.26;79.99;101178.59;5022397;28;20484;-76
2022/04/19 05:46:03;;;;;;;20.88;9.05;;;;;;;5.45;79.08;101175.50;5037296;28;20322;-76
2022/04/19 05:48:29;;;;;;;19.48;9.15;;;;;;;5.60;78.30;101176.09;5040241;28;20102;-76
2022/04/19 05:50:54;;;;;;;20.85;8.98;;;;;;;5.81;77.09;101175.44;5058620;28;20037;-76
2022/04/19 05:53:20;;;;;;;18.02;9.18;;;;;;;6.06;75.73;101173.59;5039940;28;20034;-76
2022/04/19 05:55:46;;;;;;;19.58;8.98;;;;;;;6.29;74.69;101170.09;5041713;28;20488;-76
2022/04/19 05:58:13;;;;;;;20.90;9.23;;;;;;;6.57;73.56;101173.91;5040620;28;20513;-76
2022/04/19 06:00:39;;;;;;;19.20;8.90;;;;;;;6.99;72.07;101173.19;5042682;28;20036;-76
2022/04/19 06:05:53;;;;;;;19.52;9.00;;;;;;;7.85;67.71;101181.59;5013924;28;20040;-76
2022/04/19 06:08:20;;;;;;;19.05;9.30;;;;;;;7.94;66.98;101180.00;5024577;28;20030;-77
2022/04/19 06:10:52;;;;;;;16.08;8.38;;;;;;;7.95;66.78;101184.25;5024945;28;20064;-76
2022/04/19 06:13:18;;;;;;;17.08;7.82;;;;;;;7.99;66.07;101181.25;5055648;28;20596;-76
2022/04/19 06:15:45;;;;;;;18.45;8.15;;;;;;;8.01;64.90;101178.56;5055395;28;20058;-76
2022/04/19 06:18:10;;;;;;;18.00;8.48;;;;;;;7.98;64.43;101189.13;5034380;28;20044;-76
2022/04/19 06:20:53;;;;;;;18.15;7.95;;;;;;;7.97;63.85;101184.94;5043840;28;20561;-76
2022/04/19 06:23:19;;;;;;;17.02;7.65;;;;;;;7.88;65.38;101189.09;5040028;28;20033;-76
2022/04/19 06:25:45;;;;;;;18.63;7.82;;;;;;;7.88;64.97;101185.72;5041373;28;20020;-77
2022/04/19 06:28:11;;;;;;;40.05;8.60;;;;;;;7.94;65.42;101191.16;5038201;28;20644;-76
2022/04/19 06:30:56;;;;;;;15.35;7.80;;;;;;;8.09;63.32;101193.41;5057486;28;20041;-76
2022/04/19 06:33:22;;;;;;;14.82;8.05;;;;;;;8.12;63.18;101188.00;5023996;28;20032;-76
2022/04/19 06:35:48;;;;;;;17.75;7.97;;;;;;;8.23;63.96;101187.06;5039552;28;20036;-76
2022/04/19 06:38:15;;;;;;;21.50;8.38;;;;;;;8.48;62.13;101184.03;5023485;28;20032;-76
2022/04/19 06:40:41;;;;;;;17.80;7.88;;;;;;;8.56;62.52;101189.34;5024773;28;20039;-76
2022/04/19 06:43:07;;;;;;;20.40;8.20;;;;;;;8.79;61.73;101188.31;5020470;28;21511;-77
2022/04/19 06:45:50;;;;;;;18.83;8.30;;;;;;;8.91;61.30;101182.88;5035248;28;20024;-76
2022/04/19 06:48:34;;;;;;;18.95;7.72;;;;;;;9.09;61.70;101185.56;5038398;28;20450;-77
2022/04/19 06:51:00;;;;;;;17.73;6.65;;;;;;;9.32;60.49;101190.47;5040804;28;20036;-77
2022/04/19 06:53:29;;;;;;;16.75;7.60;;;;;;;9.61;59.87;101179.25;5023585;28;20489;-77
2022/04/19 06:56:06;;;;;;;16.85;6.70;;;;;;;9.98;57.70;101183.63;5044132;28;20024;-77
2022/04/19 06:58:33;;;;;;;14.07;7.30;;;;;;;10.37;57.75;101179.09;5056763;28;20059;-77
2022/04/19 07:00:58;;;;;;;15.27;7.82;;;;;;;10.95;55.96;101182.28;5039727;28;20120;-77
2022/04/19 07:03:25;;;;;;;13.77;6.65;;;;;;;11.74;52.29;101183.97;5042859;28;20050;-77
2022/04/19 07:06:16;;;;;;;33.50;11.63;;;;;;;12.70;48.10;101182.06;5048653;28;20123;-77
2022/04/19 07:08:42;;;;;;;18.67;6.97;;;;;;;12.99;47.21;101177.19;5042533;28;20034;-77
2022/04/19 07:11:07;;;;;;;15.43;6.82;;;;;;;13.36;45.41;101175.91;5039367;28;21541;-77
2022/04/19 07:13:51;;;;;;;14.95;6.95;;;;;;;14.07;44.83;101173.44;5044122;28;20135;-77
2022/04/19 07:16:33;;;;;;;15.43;6.32;;;;;;;14.22;42.77;101173.50;5029049;28;20068;-76
2022/04/19 07:18:59;;;;;;;16.52;6.25;;;;;;;14.99;42.31;101173.53;5038042;28;20421;-77
2022/04/19 07:26:53;;;;;;;13.23;6.63;;;;;;;15.69;41.11;101176.78;5044209;28;20307;-77
2022/04/19 07:29:18;;;;;;;14.98;6.97;;;;;;;15.99;40.51;101174.16;5028097;28;20037;-78
2022/04/19 07:31:47;;;;;;;13.00;6.10;;;;;;;16.17;40.16;101178.22;5042681;28;20945;-77
2022/04/19 07:34:33;;;;;;;12.77;5.97;;;;;;;16.23;38.49;101175.66;5027368;28;20031;-77
2022/04/19 07:36:59;;;;;;;11.15;5.45;;;;;;;15.94;38.32;101171.31;5043997;28;20473;-78
2022/04/19 07:39:24;;;;;;;14.82;7.05;;;;;;;15.74;38.66;101184.09;5027930;28;20032;-77
2022/04/19 07:41:51;;;;;;;15.52;6.93;;;;;;;16.41;40.06;101167.41;5044279;28;20028;-78
2022/04/19 07:44:17;;;;;;;14.48;6.55;;;;;;;17.10;38.23;101171.28;5043318;28;20051;-78
2022/04/19 07:46:44;;;;;;;13.98;6.35;;;;;;;17.45;37.15;101168.69;5040872;28;20066;-78
2022/04/19 07:49:10;;;;;;;14.05;7.07;;;;;;;16.58;36.14;101165.38;5037251;28;20040;-78
2022/04/19 07:51:36;;;;;;;12.00;6.78;;;;;;;16.79;36.15;101175.03;5038224;28;20029;-78
2022/04/19 07:54:03;;;;;;;12.13;6.85;;;;;;;17.21;35.16;101169.94;5040271;28;20429;-77
2022/04/19 07:56:29;;;;;;;11.35;6.07;;;;;;;17.67;36.78;101165.00;5028708;28;20151;-78
2022/04/19 07:58:55;;;;;;;13.18;6.63;;;;;;;17.76;35.67;101172.69;5056088;28;20028;-79
2022/04/19 08:01:20;;;;;;;12.23;6.47;;;;;;;17.94;35.63;101165.16;5024672;28;20051;-78
2022/04/19 08:03:47;;;;;;;16.10;6.60;;;;;;;17.96;35.09;101162.34;5023742;28;20133;-78
2022/04/19 08:06:12;;;;;;;15.35;6.32;;;;;;;18.07;34.71;101159.13;5050610;28;20774;-78
2022/04/19 08:08:40;;;;;;;20.58;6.38;;;;;;;18.31;34.40;101159.59;5035838;28;20025;-78
2022/04/19 08:11:06;;;;;;;11.52;6.22;;;;;;;18.32;34.61;101164.66;5018831;28;20101;-78
2022/04/19 08:13:32;;;;;;;13.60;6.40;;;;;;;18.32;34.22;101163.84;5044294;28;20408;-78
2022/04/19 08:15:57;;;;;;;14.10;7.53;;;;;;;18.18;34.19;101163.03;5060000;28;20677;-78
2022/04/19 08:18:23;;;;;;;10.82;5.75;;;;;;;18.59;33.54;101165.53;5044685;28;20051;-79
2022/04/19 08:20:52;;;;;;;12.35;6.57;;;;;;;18.48;33.08;101155.63;5026514;28;20028;-79
2022/04/19 08:23:18;;;;;;;11.23;6.03;;;;;;;18.24;33.66;101160.41;5023590;28;20036;-77
2022/04/19 08:25:49;;;;;;;12.55;6.00;;;;;;;18.88;32.67;101163.56;5021888;28;20486;-79
2022/04/19 08:28:14;;;;;;;15.55;6.28;;;;;;;18.96;32.10;101157.28;5021009;28;20044;-78
2022/04/19 08:30:40;;;;;;;11.40;5.88;;;;;;;18.70;31.79;101163.31;5036364;28;20367;-78
2022/04/19 08:33:09;;;;;;;15.20;6.00;;;;;;;18.77;31.90;101154.41;5023365;28;20123;-78
2022/04/19 08:35:35;;;;;;;12.68;5.40;;;;;;;19.26;31.76;101161.09;5039114;28;20382;-78
2022/04/19 08:38:00;;;;;;;9.63;5.60;;;;;;;18.87;30.43;101156.66;5023353;28;20086;-78
2022/04/19 08:40:29;;;;;;;11.52;5.65;;;;;;;19.10;30.93;101160.72;5027328;28;20158;-79
2022/04/19 08:42:58;;;;;;;12.75;5.20;;;;;;;19.44;30.70;101159.66;5022241;28;20020;-79
2022/04/19 08:45:24;;;;;;;11.07;6.00;;;;;;;19.36;29.90;101152.78;5053401;28;20036;-78
2022/04/19 08:47:49;;;;;;;13.68;5.65;;;;;;;18.60;29.88;101164.50;5039331;28;20463;-78
2022/04/19 08:50:20;;;;;;;17.55;5.70;;;;;;;18.11;30.09;101160.38;5020360;28;21116;-78
2022/04/19 08:52:46;;;;;;;9.95;5.82;;;;;;;18.59;30.92;101157.66;5038418;28;20068;-77
2022/04/19 08:57:56;;;;;;;7.75;5.18;;;;;;;18.70;30.88;101158.06;5037105;28;20063;-78
2022/04/19 09:00:23;;;;;;;8.90;5.20;;;;;;;18.64;30.24;101159.66;5061618;28;20064;-77
2022/04/19 09:02:51;;;;;;;12.10;5.80;;;;;;;18.07;29.78;101159.13;5040099;28;20032;-77
2022/04/19 09:05:21;;;;;;;11.15;5.57;;;;;;;18.20;30.50;101155.75;5055654;28;20119;-78
2022/04/19 09:07:51;;;;;;;9.15;5.72;;;;;;;18.77;30.79;101151.78;5036647;28;20103;-77
2022/04/19 09:10:34;;;;;;;7.65;4.90;;;;;;;19.00;31.17;101166.38;5052767;28;20036;-78
2022/04/19 09:13:10;;;;;;;;;;;;;;;18.87;31.84;101159.31;5026128;28;20114;-76
2022/04/19 09:15:43;;;;;;;12.73;5.30;;;;;;;18.50;32.04;101153.59;5042513;28;20399;-78
2022/04/19 09:18:29;;;;;;;9.73;5.47;;;;;;;18.35;31.22;101153.78;5037798;28;20504;-78
2022/04/19 09:20:56;;;;;;;8.65;4.93;;;;;;;18.46;32.38;101147.94;5062637;28;20437;-78
2022/04/19 09:23:22;;;;;;;12.60;5.25;;;;;;;18.72;31.18;101148.94;5042402;28;20048;-78
2022/04/19 09:25:53;;;;;;;13.18;5.30;;;;;;;18.32;30.79;101140.22;5059275;28;20105;-79
2022/04/19 09:28:21;;;;;;;11.27;4.97;;;;;;;18.04;31.93;101146.41;5056864;28;20036;-79
2022/04/19 09:30:52;;;;;;;13.43;6.05;;;;;;;18.25;31.61;101138.41;5043992;28;20601;-78
2022/04/19 09:33:20;;;;;;;10.50;5.35;;;;;;;18.72;31.36;101143.69;5043744;28;20032;-78
2022/04/19 09:36:02;;;;;;;10.77;6.03;;;;;;;18.52;31.11;101143.69;5043822;28;20047;-78
2022/04/19 09:38:36;;;;;;;11.13;5.17;;;;;;;18.71;32.40;101141.31;5049917;28;20040;-78
2022/04/19 09:41:03;;;;;;;10.43;5.47;;;;;;;18.05;32.21;101142.78;5041955;28;20044;-78
2022/04/19 09:43:28;;;;;;;11.27;4.78;;;;;;;18.47;32.11;101136.41;5040570;28;20184;-79
2022/04/19 09:45:58;;;;;;;11.80;5.07;;;;;;;18.73;32.20;101134.03;5043805;28;20115;-78
2022/04/19 09:48:27;;;;;;;11.35;5.50;;;;;;;18.65;31.20;101127.16;5045490;28;20017;-77
2022/04/19 09:50:59;;;;;;;13.85;4.90;;;;;;;18.67;31.83;101131.19;5049046;28;20052;-78
2022/04/19 09:53:27;;;;;;;8.65;5.00;;;;;;;18.49;30.69;101128.34;5043932;28;20032;-79
2022/04/19 09:55:55;;;;;;;13.30;4.45;;;;;;;18.47;31.33;101119.84;5027216;28;20024;-79
2022/04/19 09:58:22;;;;;;;9.35;5.20;;;;;;;18.04;31.34;101123.59;5040283;28;20062;-79
2022/04/19 10:00:48;;;;;;;8.15;4.18;;;;;;;18.12;32.25;101125.25;5059849;28;20035;-78
2022/04/19 10:08:47;;;;;;;11.13;4.95;;;;;;;18.94;31.13;101115.44;5040211;28;20029;-78
2022/04/19 10:11:13;;;;;;;9.68;4.90;;;;;;;18.97;31.63;101109.00;5046348;28;20045;-78
2022/04/19 10:13:39;;;;;;;14.88;5.43;;;;;;;19.42;31.42;101109.91;5061419;28;20032;-78
2022/04/19 10:16:12;;;;;;;13.07;4.82;;;;;;;19.40;31.44;101111.09;5028179;28;20098;-77
2022/04/19 10:18:39;;;;;;;12.32;4.53;;;;;;;19.13;31.19;101100.66;5043524;28;20524;-78
2022/04/19 10:21:08;;;;;;;8.30;4.45;;;;;;;19.42;32.03;101104.66;5064572;28;20047;-78
2022/04/19 10:23:39;;;;;;;21.95;9.30;;;;;;;19.15;30.58;101106.53;5041771;28;20028;-78
2022/04/19 10:26:24;;;;;;;20.85;5.93;;;;;;;19.31;30.90;101104.44;5040215;28;20095;-77
2022/04/19 10:28:55;;;;;;;14.05;4.20;;;;;;;19.10;31.50;101105.50;5041790;28;20085;-79
2022/04/19 10:31:34;;;;;;;9.85;4.15;;;;;;;19.09;31.29;101111.81;5026243;28;20093;-78
2022/04/19 10:34:04;;;;;;;8.57;4.00;;;;;;;19.03;31.57;101100.28;5041294;28;20242;-79
2022/04/19 10:36:33;;;;;;;6.88;3.90;;;;;;;18.71;31.72;101102.69;5044296;28;20505;-76
2022/04/19 10:39:08;;;;;;;6.80;4.07;;;;;;;18.64;32.11;101100.06;5058894;28;20119;-77
2022/04/19 10:41:53;;;;;;;7.82;4.15;;;;;;;18.71;32.79;101102.69;5027457;28;20062;-78
2022/04/19 10:44:28;;;;;;;6.70;3.65;;;;;;;18.85;32.21;101093.84;5041155;28;20033;-78
2022/04/19 10:47:12;;;;;;;8.13;4.00;;;;;;;19.00;32.71;101095.44;5041943;28;20029;-78
2022/04/19 10:49:54;;;;;;;5.28;3.50;;;;;;;19.43;31.71;101090.47;5040954;28;20557;-78
2022/04/19 10:52:44;;;;;;;4.80;3.22;;;;;;;19.15;30.54;101082.88;5040252;28;20040;-78
2022/04/19 10:55:24;;;;;;;7.05;3.75;;;;;;;18.79;32.13;101084.09;5035916;28;20033;-78
2022/04/19 10:58:09;;;;;;;8.35;3.78;;;;;;;18.89;31.66;101086.34;5058093;28;20064;-79
2022/04/19 11:00:34;;;;;;;6.88;3.85;;;;;;;19.31;31.56;101075.53;5026217;28;20536;-78
2022/04/19 11:03:03;;;;;;;8.48;3.35;;;;;;;19.75;32.62;101076.63;5024333;28;20139;-78
2022/04/19 11:05:53;;;;;;;6.22;3.72;;;;;;;19.88;32.63;101075.75;5025762;28;20052;-78
2022/04/19 11:08:25;;;;;;;8.25;4.32;;;;;;;19.72;31.12;101074.38;5038254;28;20113;-77
2022/04/19 11:11:03;;;;;;;10.13;4.88;;;;;;;19.77;31.73;101074.59;5025456;28;20032;-78
2022/04/19 11:13:30;;;;;;;7.05;3.95;;;;;;;19.77;31.97;101080.66;5024975;28;20033;-78
2022/04/19 11:16:05;;;;;;;7.95;3.70;;;;;;;19.70;32.25;101077.22;5025602;28;20024;-78
2022/04/19 11:18:33;;;;;;;7.13;3.35;;;;;;;19.41;31.91;101078.56;5021537;28;20025;-78
2022/04/19 11:21:19;;;;;;;5.43;3.42;;;;;;;19.30;31.40;101073.94;5058181;28;20043;-79
2022/04/19 11:23:46;;;;;;;4.63;2.95;;;;;;;19.10;30.47;101081.88;5001532;28;20044;-78
2022/04/19 11:26:30;;;;;;;6.43;3.42;;;;;;;19.33;31.88;101076.16;5061073;28;20115;-78
2022/04/19 11:29:08;;;;;;;4.72;3.45;;;;;;;19.37;32.22;101074.72;5044140;28;20029;-78
2022/04/19 11:31:34;;;;;;;4.75;3.40;;;;;;;19.25;31.66;101072.75;5044648;28;20028;-78
2022/04/19 11:34:00;;;;;;;6.90;4.28;;;;;;;19.32;32.81;101075.34;5037673;28;20029;-78
2022/04/19 11:36:26;;;;;;;7.47;3.78;;;;;;;19.63;32.39;101074.63;5039045;28;20697;-78
2022/04/19 11:38:52;;;;;;;8.55;4.03;;;;;;;19.37;32.28;101072.91;5058116;28;20123;-79
2022/04/19 11:46:51;;;;;;;4.60;3.15;;;;;;;19.36;32.19;101065.22;5044269;28;20036;-78
2022/04/19 11:49:16;;;;;;;8.02;3.97;;;;;;;19.59;32.56;101062.91;5027479;28;20060;-78
2022/04/19 11:51:51;;;;;;;6.68;3.97;;;;;;;19.44;31.29;101057.91;5044011;28;20034;-79
2022/04/19 11:54:23;;;;;;;8.82;4.43;;;;;;;19.39;31.82;101049.84;5057532;28;20505;-76
2022/04/19 11:56:53;;;;;;;16.52;6.70;;;;;;;19.44;33.68;101057.13;5023111;28;20028;-78
2022/04/19 11:59:27;;;;;;;12.27;4.93;;;;;;;19.08;31.63;101062.88;5054334;28;20424;-78
2022/04/19 12:01:54;;;;;;;7.90;4.32;;;;;;;19.02;32.22;101062.69;5039601;28;20032;-79
2022/04/19 12:04:20;;;;;;;6.40;4.00;;;;;;;19.29;33.08;101056.53;5040830;28;20032;-79